Time;durP1;ratioP1;P1;durP2;ratioP2;P2;SDS_P1;SDS_P2;PMS_P1;PMS_P2;Temp;Humidity;BMP_temperature;BMP_pressure;BME280_temperature;BME280_humidity;BME280_pressure;Samples;Min_cycle;Max_cycle;Signal;HPM_P1;HPM_P2
2023/02/12 00:02:19;;;;;;;13.53;9.80;;;;;;;7.82;100.00;102815.19;4992375;28;20617;-78
2023/02/12 00:04:47;;;;;;;12.90;9.50;;;;;;;7.80;100.00;102825.81;4990449;28;20204;-78
2023/02/12 00:07:14;;;;;;;17.53;9.57;;;;;;;7.80;100.00;102828.47;4990860;28;20212;-78
2023/02/12 00:09:40;;;;;;;14.83;8.97;;;;;;;7.80;100.00;102828.47;4986486;28;20583;-78
2023/02/12 00:12:07;;;;;;;13.67;9.10;;;;;;;7.80;100.00;102835.56;4987552;28;20231;-78
2023/02/12 00:14:34;;;;;;;15.27;9.40;;;;;;;7.81;100.00;102842.59;4995362;28;20231;-79
2023/02/12 00:17:00;;;;;;;12.40;8.97;;;;;;;7.80;100.00;102832.91;4994111;28;20200;-78
2023/02/12 00:19:27;;;;;;;13.80;9.60;;;;;;;7.80;100.00;102832.91;4995032;28;20213;-79
2023/02/12 00:21:55;;;;;;;12.80;9.13;;;;;;;7.80;100.00;102824.94;4990919;28;20227;-79
2023/02/12 00:24:21;;;;;;;19.43;9.70;;;;;;;7.79;100.00;102825.84;5000486;28;20203;-79
2023/02/12 00:26:49;;;;;;;16.50;10.87;;;;;;;7.80;100.00;102832.91;4993797;28;20198;-78
2023/02/12 00:29:16;;;;;;;13.07;9.17;;;;;;;7.79;100.00;102847.94;4990057;28;20203;-78
2023/02/12 00:31:42;;;;;;;17.60;9.40;;;;;;;7.79;100.00;102847.94;5002950;28;20223;-78
2023/02/12 00:34:15;;;;;;;15.80;9.40;;;;;;;7.80;100.00;102843.50;4995627;28;20687;-78
2023/02/12 00:36:42;;;;;;;16.43;9.47;;;;;;;7.79;100.00;102842.63;4989206;28;20409;-78
2023/02/12 00:39:11;;;;;;;17.13;9.40;;;;;;;7.80;100.00;102838.19;4997208;28;20209;-78
2023/02/12 00:41:38;;;;;;;14.67;8.83;;;;;;;7.79;100.00;102839.97;4993155;28;20238;-78
2023/02/12 00:44:04;;;;;;;11.63;8.80;;;;;;;7.79;100.00;102836.44;4997133;28;20218;-78
2023/02/12 00:46:31;;;;;;;12.63;8.93;;;;;;;7.78;100.00;102840.00;4991153;28;20208;-78
2023/02/12 00:48:57;;;;;;;16.30;8.73;;;;;;;7.79;100.00;102844.41;4992481;28;20203;-78
2023/02/12 00:51:24;;;;;;;14.43;8.43;;;;;;;7.80;100.00;102848.81;4994457;28;20258;-78
2023/02/12 00:53:50;;;;;;;18.07;9.20;;;;;;;7.80;100.00;102846.16;4990096;28;20212;-77
2023/02/12 00:56:18;;;;;;;14.70;8.23;;;;;;;7.80;100.00;102846.16;4993326;28;20224;-78
2023/02/12 00:58:44;;;;;;;11.33;7.97;;;;;;;7.77;100.00;102844.44;4991574;28;20884;-78
2023/02/12 01:01:11;;;;;;;13.27;7.90;;;;;;;7.76;100.00;102853.28;4992900;28;20212;-79
2023/02/12 01:03:38;;;;;;;14.37;7.63;;;;;;;7.77;100.00;102854.16;4990033;28;20226;-78
2023/02/12 01:06:05;;;;;;;12.33;7.47;;;;;;;7.76;100.00;102849.75;4992459;28;20228;-79
2023/02/12 01:08:32;;;;;;;12.00;6.97;;;;;;;7.76;100.00;102855.94;4998393;28;20235;-78
2023/02/12 01:11:01;;;;;;;13.03;7.90;;;;;;;7.76;100.00;102847.97;4994391;28;20215;-79
2023/02/12 01:13:30;;;;;;;13.17;7.30;;;;;;;7.76;100.00;102857.72;4987100;28;20699;-79
2023/02/12 01:16:07;;;;;;;12.13;8.00;;;;;;;7.75;100.00;102861.28;4991194;28;20219;-78
2023/02/12 01:18:34;;;;;;;13.13;8.23;;;;;;;7.75;100.00;102853.31;4998679;28;20209;-78
2023/02/12 01:21:01;;;;;;;11.17;7.73;;;;;;;7.74;100.00;102865.69;4991236;28;20208;-78
2023/02/12 01:23:27;;;;;;;12.73;7.70;;;;;;;7.76;100.00;102868.31;4996380;28;20223;-78
2023/02/12 01:25:54;;;;;;;12.83;7.70;;;;;;;7.76;100.00;102861.25;4990274;28;20965;-78
2023/02/12 01:28:20;;;;;;;12.60;8.33;;;;;;;7.77;100.00;102864.78;5003087;28;20210;-78
2023/02/12 01:30:48;;;;;;;13.87;7.87;;;;;;;7.75;100.00;102862.16;4999917;28;20216;-78
2023/02/12 01:33:15;;;;;;;15.97;7.90;;;;;;;7.75;100.00;102861.28;4997619;28;20234;-78
2023/02/12 01:35:41;;;;;;;11.57;8.23;;;;;;;7.75;100.00;102863.91;5000776;28;20222;-77
2023/02/12 01:38:07;;;;;;;14.83;8.27;;;;;;;7.73;100.00;102855.97;4999010;28;20216;-78
2023/02/12 01:40:36;;;;;;;12.27;8.50;;;;;;;7.73;100.00;102857.75;4999555;28;20207;-78
2023/02/12 01:43:03;;;;;;;13.53;8.10;;;;;;;7.72;100.00;102858.66;4992456;28;20227;-78
2023/02/12 01:45:45;;;;;;;11.17;7.93;;;;;;;7.72;100.00;102863.97;4994144;28;20215;-78
2023/02/12 01:48:16;;;;;;;15.00;8.53;;;;;;;7.72;100.00;102856.88;4991416;28;20716;-78
2023/02/12 01:50:45;;;;;;;12.10;8.37;;;;;;;7.73;100.00;102869.25;4993938;28;20207;-78
2023/02/12 01:53:18;;;;;;;13.80;8.70;;;;;;;7.72;100.00;102858.66;4997649;28;20231;-78
2023/02/12 01:55:46;;;;;;;9.70;7.97;;;;;;;7.73;100.00;102863.06;4987930;28;20231;-78
2023/02/12 01:58:13;;;;;;;12.77;8.27;;;;;;;7.72;100.00;102861.31;5001736;28;20215;-79
2023/02/12 02:00:40;;;;;;;16.80;8.57;;;;;;;7.71;100.00;102868.41;4992166;28;20681;-78
2023/02/12 02:03:06;;;;;;;11.83;8.57;;;;;;;7.70;100.00;102868.44;5000829;28;20227;-79
2023/02/12 02:05:42;;;;;;;13.40;8.10;;;;;;;7.70;100.00;102863.16;4993718;28;20195;-78
2023/02/12 02:08:21;;;;;;;13.23;8.10;;;;;;;7.70;100.00;102865.78;4996535;28;20208;-78
2023/02/12 02:10:47;;;;;;;11.67;8.03;;;;;;;7.69;100.00;102859.63;4995830;28;20582;-78
2023/02/12 02:16:02;;;;;;;15.93;8.00;;;;;;;7.65;100.00;102861.44;4987373;28;20266;-78
2023/02/12 02:18:38;;;;;;;13.03;8.43;;;;;;;7.64;100.00;102861.44;4988482;28;20212;-78
2023/02/12 02:21:26;;;;;;;18.43;8.40;;;;;;;7.65;100.00;102865.84;4984777;28;20195;-78
2023/02/12 02:24:11;;;;;;;13.57;7.33;;;;;;;7.62;100.00;102864.13;4991044;28;20195;-78
2023/02/12 02:27:16;;;;;;;12.77;7.73;;;;;;;7.61;100.00;102859.72;4988986;28;20596;-79
2023/02/12 02:30:19;;;;;;;12.00;7.87;;;;;;;7.61;100.00;102870.34;4988658;28;20214;-79
2023/02/12 02:32:54;;;;;;;13.90;7.20;;;;;;;7.59;100.00;102861.53;4992222;28;20223;-77
2023/02/12 02:35:27;;;;;;;11.50;8.10;;;;;;;7.59;100.00;102858.88;4993268;28;20559;-77
2023/02/12 02:38:06;;;;;;;14.47;7.93;;;;;;;7.57;100.00;102863.31;4984285;28;20203;-77
2023/02/12 02:40:39;;;;;;;12.60;8.30;;;;;;;7.56;100.00;102856.25;4989534;28;20971;-78
2023/02/12 02:43:10;;;;;;;11.63;7.57;;;;;;;7.56;100.00;102864.22;4981715;28;20594;-78
2023/02/12 02:45:42;;;;;;;12.10;8.23;;;;;;;7.54;100.00;102858.06;4997050;28;20206;-77
2023/02/12 02:48:14;;;;;;;12.73;8.20;;;;;;;7.53;100.00;102856.31;4987768;28;20207;-78
2023/02/12 02:50:43;;;;;;;13.03;8.90;;;;;;;7.51;100.00;102855.47;5000061;28;20234;-77
2023/02/12 02:53:13;;;;;;;11.37;8.50;;;;;;;7.50;100.00;102859.03;4999078;28;20223;-77
2023/02/12 02:55:44;;;;;;;10.17;7.53;;;;;;;7.50;100.00;102866.97;4992638;28;20219;-78
2023/02/12 02:58:14;;;;;;;11.07;8.47;;;;;;;7.50;100.00;102866.97;4989579;28;20861;-78
2023/02/12 03:00:48;;;;;;;10.90;8.13;;;;;;;7.49;100.00;102867.88;4989049;28;20622;-78
2023/02/12 03:03:23;;;;;;;14.63;8.37;;;;;;;7.49;100.00;102872.31;4990625;28;20286;-78
2023/02/12 03:05:52;;;;;;;14.47;9.13;;;;;;;7.47;100.00;102859.06;4993994;28;20218;-78
2023/02/12 03:08:23;;;;;;;12.33;9.07;;;;;;;7.48;100.00;102868.78;4989751;28;20199;-78
2023/02/12 03:10:54;;;;;;;9.97;8.10;;;;;;;7.46;100.00;102867.91;4988890;28;20203;-78
2023/02/12 03:13:28;;;;;;;12.17;9.20;;;;;;;7.44;100.00;102872.38;4989425;28;20230;-78
2023/02/12 03:16:00;;;;;;;12.27;8.67;;;;;;;7.44;100.00;102868.84;4991663;28;20219;-78
2023/02/12 03:18:32;;;;;;;12.47;8.30;;;;;;;7.42;100.00;102874.16;4985741;28;20199;-77
2023/02/12 03:21:02;;;;;;;11.47;8.40;;;;;;;7.41;100.00;102880.34;4989646;28;20211;-78
2023/02/12 03:23:35;;;;;;;12.07;8.97;;;;;;;7.39;100.00;102879.50;4992843;28;20573;-78
2023/02/12 03:26:06;;;;;;;12.27;9.00;;;;;;;7.40;100.00;102877.72;4990649;28;20741;-78
2023/02/12 03:28:34;;;;;;;12.17;8.93;;;;;;;7.38;100.00;102885.69;4981946;28;20204;-78
2023/02/12 03:31:19;;;;;;;10.57;8.67;;;;;;;7.37;100.00;102880.41;4990789;28;20274;-77
2023/02/12 03:33:53;;;;;;;15.03;9.67;;;;;;;7.36;100.00;102879.53;4990933;28;20641;-78
2023/02/12 03:36:33;;;;;;;13.63;11.17;;;;;;;7.36;100.00;102884.84;4993190;28;20218;-78
2023/02/12 03:39:08;;;;;;;11.43;8.37;;;;;;;7.35;100.00;102883.09;4994300;28;20572;-77
2023/02/12 03:41:41;;;;;;;15.60;10.13;;;;;;;7.35;100.00;102892.81;4992875;28;20196;-78
2023/02/12 03:44:16;;;;;;;14.27;10.40;;;;;;;7.33;100.00;102895.50;5000253;28;20207;-78
2023/02/12 03:46:55;;;;;;;12.00;9.63;;;;;;;7.31;100.00;102895.53;4995354;28;20698;-78
2023/02/12 03:49:26;;;;;;;17.10;10.93;;;;;;;7.31;100.00;102894.66;5000035;28;20199;-77
2023/02/12 03:51:53;;;;;;;13.83;9.70;;;;;;;7.30;100.00;102906.16;4996351;28;20219;-78
2023/02/12 03:54:21;;;;;;;15.47;11.03;;;;;;;7.27;100.00;102899.13;4998880;28;20239;-78
2023/02/12 03:56:52;;;;;;;16.67;10.97;;;;;;;7.27;100.00;102900.91;4992465;28;20242;-78
2023/02/12 03:59:19;;;;;;;13.83;9.93;;;;;;;7.26;100.00;102909.75;4992647;28;20556;-77
2023/02/12 04:01:48;;;;;;;13.57;10.33;;;;;;;7.24;100.00;102908.88;4988446;28;20742;-78
2023/02/12 04:04:15;;;;;;;13.73;10.37;;;;;;;7.21;100.00;102909.78;4988893;28;20218;-77
2023/02/12 04:06:42;;;;;;;15.30;10.57;;;;;;;7.21;100.00;102908.91;4987815;28;20196;-78
2023/02/12 04:09:10;;;;;;;14.90;9.93;;;;;;;7.20;100.00;102910.69;4998321;28;20671;-78
2023/02/12 04:11:49;;;;;;;15.57;10.17;;;;;;;7.20;100.00;102915.13;4995200;28;20203;-78
2023/02/12 04:14:24;;;;;;;12.57;9.63;;;;;;;7.20;100.00;102923.06;5000468;28;20200;-77
2023/02/12 04:16:59;;;;;;;14.63;9.50;;;;;;;7.19;100.00;102927.47;4992048;28;20231;-77
2023/02/12 04:19:40;;;;;;;14.57;10.30;;;;;;;7.18;100.00;102933.69;4996342;28;20203;-77
2023/02/12 04:22:17;;;;;;;15.67;10.53;;;;;;;7.19;100.00;102934.56;5001348;28;20223;-78
2023/02/12 04:24:50;;;;;;;16.83;9.80;;;;;;;7.18;100.00;102931.03;4987930;28;20576;-77
2023/02/12 04:27:23;;;;;;;14.27;10.27;;;;;;;7.18;100.00;102932.81;5000717;28;20203;-78
2023/02/12 04:29:55;;;;;;;18.63;10.93;;;;;;;7.15;100.00;102930.22;4991197;28;20204;-78
2023/02/12 04:32:28;;;;;;;15.63;11.23;;;;;;;7.13;100.00;102934.66;4987323;28;20230;-78
2023/02/12 04:35:01;;;;;;;16.27;10.17;;;;;;;7.12;100.00;102941.72;4993066;28;20212;-78
2023/02/12 04:37:35;;;;;;;17.57;11.47;;;;;;;7.12;100.00;102943.50;4996223;28;20216;-79
2023/02/12 04:40:04;;;;;;;17.30;11.37;;;;;;;7.11;100.00;102950.56;4992061;28;20210;-78
2023/02/12 04:42:31;;;;;;;17.60;11.80;;;;;;;7.10;100.00;102947.94;4998432;28;20223;-78
2023/02/12 04:44:57;;;;;;;22.73;12.17;;;;;;;7.10;100.00;102950.59;4990703;28;20203;-79
2023/02/12 04:47:25;;;;;;;14.67;10.50;;;;;;;7.09;100.00;102949.72;4994623;28;20206;-78
2023/02/12 04:49:52;;;;;;;23.57;11.97;;;;;;;7.08;100.00;102955.03;4989520;28;20204;-78
2023/02/12 04:52:18;;;;;;;16.90;11.37;;;;;;;7.07;100.00;102955.91;4992806;28;20234;-77
2023/02/12 04:54:45;;;;;;;17.70;12.40;;;;;;;7.05;100.00;102958.59;4986861;28;20207;-78
2023/02/12 04:57:11;;;;;;;18.80;11.87;;;;;;;7.06;100.00;102967.41;4990453;28;20775;-79
2023/02/12 04:59:38;;;;;;;20.27;12.20;;;;;;;7.06;100.00;102967.41;4997976;28;20250;-79
2023/02/12 05:02:04;;;;;;;18.33;12.03;;;;;;;7.06;100.00;102967.41;4995290;28;20242;-79
2023/02/12 05:04:32;;;;;;;17.03;11.77;;;;;;;7.05;100.00;102969.19;4999344;28;20233;-78
2023/02/12 05:06:58;;;;;;;18.50;12.30;;;;;;;7.05;100.00;102963.88;4989930;28;20211;-78
2023/02/12 05:09:25;;;;;;;14.87;10.93;;;;;;;7.04;100.00;102963.91;5001155;28;20211;-78
2023/02/12 05:11:51;;;;;;;19.33;11.00;;;;;;;7.04;100.00;102958.59;5000321;28;20234;-77
2023/02/12 05:14:18;;;;;;;17.60;11.87;;;;;;;7.04;100.00;102958.59;4990000;28;20673;-78
2023/02/12 05:16:44;;;;;;;16.90;11.00;;;;;;;7.03;100.00;102964.78;5001250;28;20254;-78
2023/02/12 05:19:11;;;;;;;18.70;12.30;;;;;;;7.03;100.00;102964.78;4984810;28;20219;-78
2023/02/12 05:21:39;;;;;;;19.23;11.43;;;;;;;7.03;100.00;102959.50;4982852;28;20219;-78
2023/02/12 05:24:06;;;;;;;18.53;11.90;;;;;;;7.02;100.00;102955.09;4992893;28;20204;-78
2023/02/12 05:26:33;;;;;;;17.73;11.93;;;;;;;7.01;100.00;102955.97;5004407;28;20203;-79
2023/02/12 05:28:59;;;;;;;20.20;12.90;;;;;;;7.01;100.00;102958.63;4989017;28;20216;-79
2023/02/12 05:31:26;;;;;;;17.27;11.47;;;;;;;7.01;100.00;102955.97;4996261;28;20203;-77
2023/02/12 05:33:52;;;;;;;21.30;12.57;;;;;;;7.00;100.00;102954.22;4985852;28;20208;-78
2023/02/12 05:36:21;;;;;;;21.87;13.00;;;;;;;7.01;100.00;102963.94;4995268;28;20230;-79
2023/02/12 05:38:49;;;;;;;16.77;12.10;;;;;;;7.01;100.00;102964.81;4997452;28;20590;-81
2023/02/12 05:41:18;;;;;;;18.33;11.93;;;;;;;7.00;100.00;102960.41;4996700;28;20200;-80
2023/02/12 05:43:44;;;;;;;18.80;12.37;;;;;;;7.01;100.00;102954.22;4995875;28;20234;-81
2023/02/12 05:46:12;;;;;;;21.67;12.77;;;;;;;7.01;100.00;102958.63;4989827;28;20215;-80
2023/02/12 05:48:39;;;;;;;21.23;13.03;;;;;;;7.01;100.00;102962.16;4996007;28;20207;-80
2023/02/12 05:51:09;;;;;;;23.70;13.23;;;;;;;7.01;100.00;102962.16;4995913;28;20192;-80
2023/02/12 05:53:35;;;;;;;21.37;11.83;;;;;;;7.01;100.00;102961.28;4988914;28;20229;-80
2023/02/12 05:56:15;;;;;;;24.93;13.77;;;;;;;7.01;100.00;102963.94;4993042;28;20235;-79
2023/02/12 05:58:43;;;;;;;19.40;12.97;;;;;;;7.02;100.00;102968.34;4994218;28;20210;-80
2023/02/12 06:01:13;;;;;;;23.20;12.70;;;;;;;7.01;100.00;102969.22;4994466;28;20216;-80
2023/02/12 06:03:39;;;;;;;18.53;12.50;;;;;;;6.99;100.00;102971.91;4989761;28;20228;-81
2023/02/12 06:06:06;;;;;;;18.50;12.57;;;;;;;7.00;100.00;102975.41;4993413;28;20203;-81
2023/02/12 06:08:33;;;;;;;20.30;13.33;;;;;;;6.98;100.00;102967.53;4987639;28;20209;-80
2023/02/12 06:11:01;;;;;;;16.20;11.80;;;;;;;6.96;100.00;102975.47;4992875;28;20204;-81
2023/02/12 06:13:29;;;;;;;19.73;12.57;;;;;;;6.95;100.00;102973.72;4992526;28;20649;-82
2023/02/12 06:15:56;;;;;;;18.30;12.37;;;;;;;6.94;100.00;102968.44;4994367;28;20208;-81
2023/02/12 06:18:22;;;;;;;18.93;12.07;;;;;;;6.94;100.00;102971.97;4994823;28;20203;-81
2023/02/12 06:20:49;;;;;;;21.67;13.07;;;;;;;6.94;100.00;102965.78;4999355;28;20202;-80
2023/02/12 06:23:15;;;;;;;19.60;12.13;;;;;;;6.93;100.00;102964.03;4990767;28;20231;-82
2023/02/12 06:25:42;;;;;;;20.53;13.00;;;;;;;6.92;100.00;102962.28;4991709;28;20214;-80
2023/02/12 06:28:08;;;;;;;24.43;13.73;;;;;;;6.91;100.00;102969.34;4996470;28;20629;-81
2023/02/12 06:30:36;;;;;;;25.77;13.40;;;;;;;6.93;100.00;102964.03;4994800;28;20200;-82
2023/02/12 06:33:03;;;;;;;23.33;14.10;;;;;;;6.94;100.00;102971.97;4991692;28;20266;-81
2023/02/12 06:35:29;;;;;;;23.97;13.43;;;;;;;6.93;100.00;102966.69;4991284;28;20853;-80
2023/02/12 06:37:56;;;;;;;24.03;14.93;;;;;;;6.92;100.00;102971.09;4993284;28;20231;-80
2023/02/12 06:40:22;;;;;;;26.27;14.90;;;;;;;6.92;100.00;102973.75;4986884;28;20238;-80
2023/02/12 06:42:48;;;;;;;26.50;14.47;;;;;;;6.92;100.00;102968.47;4989355;28;20238;-80
2023/02/12 06:45:15;;;;;;;26.47;14.17;;;;;;;6.93;100.00;102980.81;4994975;28;20210;-80
2023/02/12 06:47:43;;;;;;;31.67;15.57;;;;;;;6.94;100.00;102979.91;4995527;28;20203;-79
2023/02/12 06:50:10;;;;;;;27.43;14.60;;;;;;;6.93;100.00;102980.81;4998458;28;20208;-80
2023/02/12 06:52:37;;;;;;;27.40;14.17;;;;;;;6.92;100.00;102981.69;4987230;28;20231;-81
2023/02/12 06:55:04;;;;;;;29.47;15.23;;;;;;;6.92;100.00;102988.78;4994041;28;20677;-79
2023/02/12 06:57:30;;;;;;;26.60;14.63;;;;;;;6.92;100.00;102989.66;4990189;28;20245;-80
2023/02/12 06:59:57;;;;;;;30.43;14.33;;;;;;;6.93;100.00;102985.22;4994620;28;20214;-79
2023/02/12 07:02:23;;;;;;;31.50;14.93;;;;;;;6.93;100.00;102991.41;4994236;28;20231;-79
2023/02/12 07:04:51;;;;;;;29.77;14.97;;;;;;;6.93;100.00;102994.06;4990362;28;20750;-80
2023/02/12 07:07:18;;;;;;;23.93;14.03;;;;;;;6.93;100.00;103001.13;4992940;28;20246;-80
2023/02/12 07:09:44;;;;;;;27.07;14.10;;;;;;;6.91;100.00;103006.44;5000555;28;20207;-80
2023/02/12 07:12:11;;;;;;;27.27;14.77;;;;;;;6.92;100.00;103010.84;5000113;28;20230;-80
2023/02/12 07:14:37;;;;;;;25.60;14.27;;;;;;;6.91;100.00;103024.09;4991830;28;20206;-81
2023/02/12 07:17:07;;;;;;;21.40;13.37;;;;;;;6.91;100.00;103022.34;5006461;28;20258;-81
2023/02/12 07:19:34;;;;;;;26.10;13.27;;;;;;;6.92;100.00;103018.78;5003637;28;20631;-80
2023/02/12 07:22:02;;;;;;;25.63;13.80;;;;;;;6.92;100.00;103024.09;4987017;28;20251;-80
2023/02/12 07:24:28;;;;;;;31.10;14.47;;;;;;;6.93;100.00;103025.84;4993139;28;20622;-80
2023/02/12 07:26:55;;;;;;;26.70;13.33;;;;;;;6.92;100.00;103016.13;5002303;28;20214;-81
2023/02/12 07:29:21;;;;;;;28.27;14.20;;;;;;;6.94;100.00;103022.31;5005874;28;20206;-81
2023/02/12 07:31:48;;;;;;;23.30;13.97;;;;;;;6.94;100.00;103019.66;5010828;28;20322;-81
2023/02/12 07:34:14;;;;;;;23.07;13.03;;;;;;;6.96;100.00;103038.19;4998080;28;20212;-81
2023/02/12 07:36:41;;;;;;;21.53;13.03;;;;;;;6.96;100.00;103036.41;5002284;28;20239;-80
2023/02/12 07:39:11;;;;;;;28.43;14.63;;;;;;;6.98;100.00;103033.75;4999166;28;20224;-80
2023/02/12 07:41:37;;;;;;;25.20;14.33;;;;;;;6.97;100.00;103030.22;4998064;28;20199;-80
2023/02/12 07:44:06;;;;;;;33.47;14.47;;;;;;;7.00;100.00;103028.41;5002625;28;20675;-80
2023/02/12 07:46:35;;;;;;;31.80;14.40;;;;;;;7.01;100.00;103028.41;4999306;28;20256;-82
2023/02/12 07:49:04;;;;;;;24.63;13.43;;;;;;;7.03;100.00;103025.72;5000827;28;20214;-80
2023/02/12 07:51:32;;;;;;;28.27;14.40;;;;;;;7.05;100.00;103035.44;4997536;28;20555;-81
2023/02/12 07:54:00;;;;;;;22.43;13.23;;;;;;;7.06;100.00;103031.00;4993265;28;20243;-82
2023/02/12 07:56:31;;;;;;;28.93;14.07;;;;;;;7.07;100.00;103035.41;4993073;28;20606;-80
2023/02/12 07:58:59;;;;;;;28.73;14.40;;;;;;;7.08;100.00;103035.41;4991295;28;20262;-80
2023/02/12 08:01:28;;;;;;;29.30;15.60;;;;;;;7.09;100.00;103036.28;4988974;28;20788;-81
2023/02/12 08:03:57;;;;;;;29.10;14.37;;;;;;;7.13;100.00;103045.97;4991658;28;20205;-79
2023/02/12 08:06:26;;;;;;;31.13;16.10;;;;;;;7.14;100.00;103047.72;4988908;28;20216;-81
2023/02/12 08:08:54;;;;;;;33.40;15.40;;;;;;;7.16;100.00;103037.97;4993675;28;20691;-81
2023/02/12 08:11:21;;;;;;;34.07;17.03;;;;;;;7.16;100.00;103037.97;4991651;28;20208;-79
2023/02/12 08:13:50;;;;;;;39.93;16.33;;;;;;;7.17;100.00;103035.28;4994060;28;20312;-82
2023/02/12 08:16:18;;;;;;;31.37;15.43;;;;;;;7.20;100.00;103039.66;4992414;28;20212;-81
2023/02/12 08:18:45;;;;;;;34.87;15.37;;;;;;;7.20;100.00;103040.56;4989823;28;20231;-81
2023/02/12 08:21:14;;;;;;;33.83;15.53;;;;;;;7.22;100.00;103032.59;4987370;28;20203;-79
2023/02/12 08:23:41;;;;;;;38.07;16.07;;;;;;;7.26;100.00;103039.63;4997083;28;20224;-84
2023/02/12 08:26:09;;;;;;;35.03;15.93;;;;;;;7.28;100.00;103046.66;4990423;28;20211;-80
2023/02/12 08:28:38;;;;;;;30.03;14.63;;;;;;;7.32;100.00;103048.38;4996536;28;20203;-82
2023/02/12 08:31:09;;;;;;;33.10;16.00;;;;;;;7.35;100.00;103044.78;4994693;28;20215;-82
2023/02/12 08:33:35;;;;;;;30.80;16.90;;;;;;;7.37;100.00;103045.66;4988440;28;20228;-82
2023/02/12 08:36:04;;;;;;;28.57;14.37;;;;;;;7.39;100.00;103045.63;4990254;28;20783;-80
2023/02/12 08:38:31;;;;;;;26.97;15.13;;;;;;;7.42;100.00;103059.75;4995215;28;20243;-79
2023/02/12 08:41:01;;;;;;;23.47;14.70;;;;;;;7.42;100.00;103059.75;4991991;28;20203;-81
2023/02/12 08:43:27;;;;;;;29.50;15.17;;;;;;;7.44;100.00;103063.25;4994341;28;20223;-80
2023/02/12 08:45:56;;;;;;;30.90;15.10;;;;;;;7.46;100.00;103064.13;4994523;28;20603;-80
2023/02/12 08:48:24;;;;;;;30.33;15.70;;;;;;;7.46;100.00;103069.44;4992974;28;20741;-80
2023/02/12 08:50:50;;;;;;;31.10;16.30;;;;;;;7.48;100.00;103069.41;4997987;28;20227;-80
2023/02/12 08:53:17;;;;;;;29.93;15.77;;;;;;;7.49;100.00;103076.47;4998419;28;20228;-81
2023/02/12 08:55:48;;;;;;;31.47;15.87;;;;;;;7.50;100.00;103072.94;4999263;28;20263;-81
2023/02/12 08:58:14;;;;;;;32.77;16.90;;;;;;;7.52;100.00;103071.13;4994390;28;20212;-81
2023/02/12 09:00:41;;;;;;;35.07;16.67;;;;;;;7.54;100.00;103074.63;4997047;28;20224;-80
2023/02/12 09:03:07;;;;;;;34.93;16.70;;;;;;;7.57;100.00;103080.75;4995982;28;20254;-80
2023/02/12 09:05:38;;;;;;;34.70;17.80;;;;;;;7.60;100.00;103075.44;4995901;28;20210;-79
2023/02/12 09:08:05;;;;;;;31.67;15.50;;;;;;;7.61;100.00;103074.53;4994705;28;20204;-80
2023/02/12 09:10:31;;;;;;;35.80;17.50;;;;;;;7.65;100.00;103083.34;4988252;28;20200;-80
2023/02/12 09:12:58;;;;;;;33.17;18.00;;;;;;;7.69;100.00;103084.19;4993640;28;20227;-79
2023/02/12 09:15:24;;;;;;;34.33;18.67;;;;;;;7.71;100.00;103090.31;4988977;28;20616;-80
2023/02/12 09:17:50;;;;;;;35.63;16.23;;;;;;;7.73;100.00;103088.53;4985786;28;20683;-82
2023/02/12 09:20:17;;;;;;;33.33;17.37;;;;;;;7.75;100.00;103089.38;4995198;28;20215;-80
2023/02/12 09:22:45;;;;;;;33.97;16.87;;;;;;;7.77;100.00;103092.91;4992274;28;20238;-81
2023/02/12 09:25:12;;;;;;;28.73;15.83;;;;;;;7.78;100.00;103090.22;4997334;28;20207;-80
2023/02/12 09:27:38;;;;;;;29.40;16.07;;;;;;;7.80;100.00;103090.22;4996017;28;20286;-81
2023/02/12 09:30:05;;;;;;;26.97;15.63;;;;;;;7.84;100.00;103090.16;4992232;28;20204;-80
2023/02/12 09:32:32;;;;;;;28.17;15.37;;;;;;;7.87;100.00;103094.56;4994540;28;20251;-81
2023/02/12 09:35:03;;;;;;;26.80;14.83;;;;;;;7.90;100.00;103105.97;4995219;28;20594;-80
2023/02/12 09:37:29;;;;;;;30.53;16.03;;;;;;;7.94;100.00;103098.88;4997956;28;20239;-79
2023/02/12 09:39:57;;;;;;;26.77;16.00;;;;;;;7.97;100.00;103102.38;4993069;28;20211;-81
2023/02/12 09:42:34;;;;;;;27.13;15.87;;;;;;;8.02;100.00;103103.19;4996447;28;20243;-79
2023/02/12 09:45:10;;;;;;;28.23;15.50;;;;;;;8.07;100.00;103104.88;4986546;28;20219;-81
2023/02/12 09:47:44;;;;;;;30.17;15.27;;;;;;;8.11;100.00;103110.13;4994190;28;20199;-81
2023/02/12 09:50:29;;;;;;;29.10;14.53;;;;;;;8.14;100.00;103107.44;5001999;28;20563;-81
2023/02/12 09:52:58;;;;;;;27.13;14.37;;;;;;;8.18;100.00;103114.47;4991980;28;20262;-80
2023/02/12 09:55:29;;;;;;;24.10;14.23;;;;;;;8.21;100.00;103106.47;4988632;28;20267;-80
2023/02/12 09:57:56;;;;;;;25.70;13.43;;;;;;;8.24;100.00;103109.03;4987994;28;20235;-82
2023/02/12 10:00:29;;;;;;;22.07;12.50;;;;;;;8.27;100.00;103106.34;4993550;28;20279;-80
2023/02/12 10:03:00;;;;;;;21.63;12.47;;;;;;;8.30;100.00;103101.00;4989369;28;20908;-81
2023/02/12 10:05:33;;;;;;;22.70;13.10;;;;;;;8.34;100.00;103107.19;4999271;28;20219;-80
2023/02/12 10:08:25;;;;;;;18.33;11.33;;;;;;;8.37;100.00;103112.44;4995217;28;20207;-81
2023/02/12 10:11:00;;;;;;;22.63;12.33;;;;;;;8.40;100.00;103111.53;4995379;28;20623;-81
2023/02/12 10:13:40;;;;;;;19.87;11.17;;;;;;;8.43;100.00;103119.44;4995029;28;20219;-81
2023/02/12 10:16:36;;;;;;;17.50;10.63;;;;;;;8.45;100.00;103115.84;4994178;28;20214;-83
2023/02/12 10:19:20;;;;;;;18.40;10.53;;;;;;;8.49;100.00;103120.22;4989214;28;20223;-82
2023/02/12 10:21:57;;;;;;;13.97;9.47;;;;;;;8.50;100.00;103118.44;4990207;28;20203;-83
2023/02/12 10:24:46;;;;;;;17.63;9.57;;;;;;;8.53;100.00;103118.41;4989022;28;20204;-82
2023/02/12 10:27:15;;;;;;;18.93;11.00;;;;;;;8.54;100.00;103125.47;4995056;28;20210;-81
2023/02/12 10:29:45;;;;;;;19.77;11.03;;;;;;;8.54;100.00;103117.50;4992470;28;20199;-80
2023/02/12 10:32:17;;;;;;;16.47;10.37;;;;;;;8.58;100.00;103116.56;4991770;28;20231;-82
2023/02/12 10:34:45;;;;;;;16.93;10.63;;;;;;;8.63;100.00;103127.97;4991799;28;20219;-80
2023/02/12 10:37:22;;;;;;;15.30;9.47;;;;;;;8.65;100.00;103120.84;4991102;28;20218;-81
2023/02/12 10:39:56;;;;;;;14.43;9.70;;;;;;;8.70;100.00;103117.22;4988527;28;20208;-79
2023/02/12 10:42:32;;;;;;;17.77;11.10;;;;;;;8.76;100.00;103115.38;4991939;28;20703;-81
2023/02/12 10:44:58;;;;;;;13.20;9.13;;;;;;;8.80;100.00;103123.25;4993879;28;20216;-83
2023/02/12 10:47:25;;;;;;;13.13;8.93;;;;;;;8.83;100.00;103117.91;4992283;28;20210;-80
2023/02/12 10:49:57;;;;;;;13.10;9.33;;;;;;;8.86;100.00;103114.31;4988377;28;20258;-81
2023/02/12 10:52:37;;;;;;;12.30;9.17;;;;;;;8.87;100.00;103118.72;4992880;28;20232;-81
2023/02/12 10:55:23;;;;;;;12.93;8.90;;;;;;;8.88;100.00;103116.06;4991048;28;20214;-81
2023/02/12 10:57:52;;;;;;;15.07;8.70;;;;;;;8.89;100.00;103111.59;4995009;28;20231;-81
2023/02/12 11:00:25;;;;;;;13.97;9.17;;;;;;;8.92;100.00;103119.53;4989837;28;20227;-81
2023/02/12 11:03:05;;;;;;;11.93;8.50;;;;;;;8.94;100.00;103121.28;4992709;28;20230;-82
2023/02/12 11:05:33;;;;;;;14.43;9.83;;;;;;;8.96;100.00;103119.44;4996852;28;20208;-82
2023/02/12 11:07:59;;;;;;;13.43;9.17;;;;;;;8.99;100.00;103107.88;4993558;28;20219;-82
2023/02/12 11:10:28;;;;;;;12.93;9.23;;;;;;;9.03;100.00;103110.47;4992564;28;20211;-82
2023/02/12 11:12:57;;;;;;;14.40;9.27;;;;;;;9.07;100.00;103107.75;4993277;28;20239;-82
2023/02/12 11:15:25;;;;;;;12.70;9.10;;;;;;;9.11;100.00;103105.03;4992573;28;20207;-83
2023/02/12 11:17:57;;;;;;;11.40;8.60;;;;;;;9.15;100.00;103109.34;4988504;28;20232;-82
2023/02/12 11:20:26;;;;;;;14.23;9.50;;;;;;;9.18;100.00;103111.09;4991630;28;20580;-83
2023/02/12 11:22:56;;;;;;;15.23;10.00;;;;;;;9.18;99.70;103106.66;4988773;28;20258;-80
2023/02/12 11:25:25;;;;;;;13.10;9.97;;;;;;;9.20;99.74;103106.63;4990089;28;20199;-81
2023/02/12 11:28:15;;;;;;;18.10;12.13;;;;;;;9.21;98.95;103105.72;4992102;28;20207;-83